Time;durP1;ratioP1;P1;durP2;ratioP2;P2;SDS_P1;SDS_P2;PMS_P1;PMS_P2;Temp;Humidity;BMP_temperature;BMP_pressure;BME280_temperature;BME280_humidity;BME280_pressure;Samples;Min_cycle;Max_cycle;Signal;HPM_P1;HPM_P2
2022/12/28 00:00:06;;;;;;;;;;;;;;;2.63;100.00;93390.59;5053985;28;20232;-76
2022/12/28 00:02:37;;;;;;;;;;;;;;;2.63;100.00;93391.38;5072305;28;19923;-76
2022/12/28 00:05:03;;;;;;;;;;;;;;;2.62;100.00;93394.97;5071901;28;19920;-76
2022/12/28 00:07:28;;;;;;;;;;;;;;;2.64;100.00;93394.78;5071848;28;19912;-76
2022/12/28 00:09:54;;;;;;;;;;;;;;;2.63;100.00;93385.41;5071646;28;19919;-76
2022/12/28 00:12:20;;;;;;;;;;;;;;;2.62;100.00;93389.03;5071719;28;19921;-76
2022/12/28 00:14:45;;;;;;;;;;;;;;;2.58;100.00;93388.66;5053952;28;19939;-75
2022/12/28 00:17:10;;;;;;;;;;;;;;;2.57;100.00;93389.66;5053977;28;20019;-76
2022/12/28 00:19:36;;;;;;;;;;;;;;;2.57;100.00;93387.06;5071533;28;19995;-77
2022/12/28 00:22:01;;;;;;;;;;;;;;;2.54;100.00;93390.06;5071013;28;19970;-77
2022/12/28 00:24:27;;;;;;;;;;;;;;;2.54;100.00;93381.53;5053674;28;19951;-77
2022/12/28 00:26:54;;;;;;;;;;;;;;;2.51;100.00;93377.59;5071392;28;20378;-77
2022/12/28 00:29:20;;;;;;;;;;;;;;;2.47;100.00;93373.84;5053195;28;19967;-77
2022/12/28 00:31:45;;;;;;;;;;;;;;;2.44;100.00;93374.28;5052984;28;19952;-77
2022/12/28 00:34:11;;;;;;;;;;;;;;;2.39;100.00;93372.34;5053276;28;19962;-77
2022/12/28 00:36:36;;;;;;;;;;;;;;;2.38;100.00;93382.88;5071114;28;19912;-77
2022/12/28 00:39:02;;;;;;;;;;;;;;;2.36;100.00;93388.25;5037066;28;19912;-78
2022/12/28 00:41:27;;;;;;;;;;;;;;;2.35;100.00;93380.75;5071378;28;20262;-77
2022/12/28 00:43:52;;;;;;;;;;;;;;;2.32;100.00;93376.78;5070927;28;19920;-77
2022/12/28 00:46:18;;;;;;;;;;;;;;;2.33;100.00;93375.00;5052555;28;19912;-77
2022/12/28 00:48:43;;;;;;;;;;;;;;;2.33;100.00;93370.59;5035797;28;19916;-77
2022/12/28 00:51:16;;;;;;;;;;;;;;;2.33;100.00;93370.59;5070955;28;19925;-77
2022/12/28 00:53:42;;;;;;;;;;;;;;;2.30;100.00;93371.03;5071199;28;19916;-77
2022/12/28 00:56:12;;;;;;;;;;;;;;;2.27;100.00;93371.44;5053122;28;19969;-77
2022/12/28 00:58:37;;;;;;;;;;;;;;;2.22;100.00;93364.34;5071410;28;20125;-77
2022/12/28 01:01:03;;;;;;;;;;;;;;;2.22;100.00;93368.72;5071282;28;20350;-77
2022/12/28 01:03:29;;;;;;;;;;;;;;;2.23;100.00;93359.97;5053208;28;19909;-77
2022/12/28 01:05:56;;;;;;;;;;;;;;;2.27;100.00;93361.94;5037191;28;19923;-77
2022/12/28 01:08:22;;;;;;;;;;;;;;;2.24;100.00;93362.34;5053370;28;19919;-78
2022/12/28 01:10:48;;;;;;;;;;;;;;;2.24;100.00;93362.34;5071337;28;20018;-78
2022/12/28 01:13:13;;;;;;;;;;;;;;;2.25;100.00;93358.78;5052985;28;19947;-78
2022/12/28 01:15:39;;;;;;;;;;;;;;;2.28;100.00;93357.53;5071103;28;19916;-78
2022/12/28 01:18:04;;;;;;;;;;;;;;;2.26;100.00;93357.75;5052378;28;19924;-77
2022/12/28 01:20:30;;;;;;;;;;;;;;;2.28;100.00;93366.09;5052626;28;19908;-77
2022/12/28 01:22:55;;;;;;;;;;;;;;;2.28;100.00;93367.88;5070713;28;20455;-77
2022/12/28 01:25:21;;;;;;;;;;;;;;;2.27;100.00;93374.84;5070723;28;19919;-78
2022/12/28 01:27:46;;;;;;;;;;;;;;;2.27;100.00;93380.00;5070576;28;19916;-77
2022/12/28 01:30:12;;;;;;;;;;;;;;;2.27;100.00;93382.59;5052334;28;20318;-77
2022/12/28 01:32:38;;;;;;;;;;;;;;;2.29;100.00;93392.69;5052759;28;19944;-77
2022/12/28 01:35:03;;;;;;;;;;;;;;;2.26;100.00;93386.16;5036160;28;19920;-77
2022/12/28 01:37:32;;;;;;;;;;;;;;;2.26;100.00;93386.16;5052753;28;20290;-78
2022/12/28 01:39:58;;;;;;;;;;;;;;;2.31;100.00;93389.91;5070357;28;19966;-77
2022/12/28 01:42:25;;;;;;;;;;;;;;;2.36;100.00;93384.88;5052802;28;20278;-77
2022/12/28 01:44:51;;;;;;;;;;;;;;;2.37;100.00;93389.06;5070883;28;20397;-78
2022/12/28 01:47:22;;;;;;;;;;;;;;;2.36;100.00;93390.06;5052766;28;20343;-77
2022/12/28 01:49:51;;;;;;;;;;;;;;;2.35;100.00;93393.66;5052855;28;19935;-77
2022/12/28 01:52:29;;;;;;;;;;;;;;;2.40;100.00;93386.06;5070596;28;20285;-77
2022/12/28 01:54:54;;;;;;;;;;;;;;;2.49;100.00;93395.09;5052590;28;19920;-77
2022/12/28 01:57:23;;;;;;;;;;;;;;;2.52;100.00;93397.25;5070745;28;19950;-77
2022/12/28 01:59:52;;;;;;;;;;;;;;;2.54;100.00;93387.50;5054641;28;20362;-77
2022/12/28 02:02:19;;;;;;;;;;;;;;;2.59;100.00;93384.25;5074305;28;20408;-77
2022/12/28 02:04:45;;;;;;;;;;;;;;;2.60;100.00;93386.63;5074424;28;19918;-78
2022/12/28 02:07:13;;;;;;;;;;;;;;;2.59;100.00;93387.66;5074005;28;19912;-78
2022/12/28 02:09:41;;;;;;;;;;;;;;;2.59;100.00;93386.84;5074236;28;19919;-77
2022/12/28 02:12:12;;;;;;;;;;;;;;;2.58;100.00;93388.66;5056128;28;20008;-77
2022/12/28 02:14:39;;;;;;;;;;;;;;;2.58;100.00;93391.22;5056165;28;19951;-77
2022/12/28 02:17:08;;;;;;;;;;;;;;;2.59;100.00;93395.41;5055885;28;20017;-77
2022/12/28 02:19:43;;;;;;;;;;;;;;;2.58;100.00;93393.03;5074117;28;19912;-77
2022/12/28 02:22:15;;;;;;;;;;;;;;;2.60;100.00;93391.81;5056123;28;20017;-77
2022/12/28 02:24:52;;;;;;;;;;;;;;;2.64;100.00;93382.63;5073865;28;19944;-78
2022/12/28 02:27:18;;;;;;;;;;;;;;;2.62;100.00;93368.34;5055769;28;20235;-77
2022/12/28 02:29:46;;;;;;;;;;;;;;;2.67;100.00;93369.25;5073724;28;19916;-77
2022/12/28 02:32:24;;;;;;;;;;;;;;;2.69;100.00;93362.06;5073668;28;19981;-77
2022/12/28 02:35:08;;;;;;;;;;;;;;;2.71;100.00;93352.31;5039323;28;20366;-76
2022/12/28 02:37:54;;;;;;;;;;;;;;;2.73;100.00;93346.16;5073575;28;19916;-77
2022/12/28 02:40:29;;;;;;;;;;;;;;;2.75;100.00;93344.94;5054886;28;19912;-78
2022/12/28 02:42:56;;;;;;;;;;;;;;;2.77;100.00;93337.75;5055479;28;19916;-77
2022/12/28 02:51:15;;;;;;;;;;;;;;;2.73;100.00;93341.75;5073393;28;20455;-77
2022/12/28 02:54:04;;;;;;;;;;;;;;;2.72;100.00;93340.16;5073105;28;19960;-77
2022/12/28 02:56:51;;;;;;;;;;;;;;;2.69;100.00;93333.63;5054258;28;20440;-76
2022/12/28 02:59:22;;;;;;;;;;;;;;;2.68;100.00;93337.25;5073172;28;20398;-76
2022/12/28 03:01:48;;;;;;;;;;;;;;;2.67;100.00;93325.31;5055247;28;20289;-76
2022/12/28 03:04:20;;;;;;;;;;;;;;;2.64;100.00;93330.13;5055157;28;19995;-76
2022/12/28 03:09:53;;;;;;;;;;;;;;;2.55;100.00;93314.13;5054822;28;20443;-78
2022/12/28 03:12:25;;;;;;;;;;;;;;;2.50;100.00;93311.41;5072445;28;20018;-77
2022/12/28 03:14:54;;;;;;;;;;;;;;;2.48;100.00;93319.38;5055090;28;19916;-77
2022/12/28 03:31:21;;;;;;;;;;;;;;;2.40;100.00;93324.03;5072506;28;19940;-77
2022/12/28 03:33:52;;;;;;;;;;;;;;;2.41;100.00;93323.00;5054922;28;19922;-77
2022/12/28 03:36:36;;;;;;;;;;;;;;;2.41;100.00;93310.09;5054574;28;19973;-77
2022/12/28 03:39:08;;;;;;;;;;;;;;;2.43;100.00;93314.06;5037513;28;19918;-77
2022/12/28 03:41:36;;;;;;;;;;;;;;;2.45;100.00;93306.06;5072278;28;20377;-77
2022/12/28 03:44:25;;;;;;;;;;;;;;;2.49;100.00;93305.44;5071755;28;19944;-77
2022/12/28 03:46:57;;;;;;;;;;;;;;;2.53;100.00;93300.63;5054470;28;20357;-76
2022/12/28 03:49:26;;;;;;;;;;;;;;;2.59;100.00;93304.94;5054287;28;19916;-77
2022/12/28 03:51:52;;;;;;;;;;;;;;;2.65;100.00;93306.63;5054429;28;19945;-77
2022/12/28 03:54:18;;;;;;;;;;;;;;;2.69;100.00;93307.78;5054440;28;19920;-77
2022/12/28 03:56:45;;;;;;;;;;;;;;;2.74;100.00;93303.75;5054308;28;19916;-76
2022/12/28 03:59:11;;;;;;;;;;;;;;;2.80;100.00;93310.66;5054052;28;20425;-77
2022/12/28 04:01:40;;;;;;;;;;;;;;;2.83;100.00;93307.63;5053964;28;19912;-77
2022/12/28 04:04:06;;;;;;;;;;;;;;;2.86;100.00;93313.16;5054057;28;19913;-77
2022/12/28 04:06:32;;;;;;;;;;;;;;;2.89;100.00;93306.75;5053819;28;19912;-77
2022/12/28 04:08:57;;;;;;;;;;;;;;;2.94;100.00;93312.06;5053964;28;19909;-77
2022/12/28 04:11:25;;;;;;;;;;;;;;;2.97;100.00;93318.59;5053411;28;19952;-76
2022/12/28 04:13:52;;;;;;;;;;;;;;;3.01;100.00;93319.75;5037602;28;19912;-77
2022/12/28 04:16:19;;;;;;;;;;;;;;;3.04;100.00;93320.09;5053721;28;20335;-77
2022/12/28 04:18:46;;;;;;;;;;;;;;;3.09;100.00;93317.63;5053656;28;19917;-77
2022/12/28 04:21:12;;;;;;;;;;;;;;;3.10;100.00;93311.44;5053244;28;20002;-76
2022/12/28 04:23:40;;;;;;;;;;;;;;;3.14;100.00;93314.41;5055065;28;19912;-78
2022/12/28 04:26:15;;;;;;;;;;;;;;;3.16;100.00;93309.78;5055502;28;19955;-78
2022/12/28 04:28:42;;;;;;;;;;;;;;;3.19;100.00;93311.94;5055306;28;20325;-78
2022/12/28 04:31:22;;;;;;;;;;;;;;;3.21;100.00;93314.31;5055980;28;19924;-78
2022/12/28 04:33:57;;;;;;;;;;;;;;;3.25;100.00;93307.69;5055883;28;19916;-78
2022/12/28 04:36:23;;;;;;;;;;;;;;;3.27;100.00;93303.88;5055466;28;19913;-77
2022/12/28 04:38:49;;;;;;;;;;;;;;;3.28;100.00;93305.44;5055589;28;19913;-78
2022/12/28 04:41:14;;;;;;;;;;;;;;;3.31;100.00;93304.19;5073420;28;19922;-79
2022/12/28 04:43:40;;;;;;;;;;;;;;;3.31;100.00;93304.19;5055932;28;19916;-79
2022/12/28 04:46:06;;;;;;;;;;;;;;;3.32;100.00;93301.41;5073691;28;19908;-78
2022/12/28 04:48:33;;;;;;;;;;;;;;;3.33;100.00;93305.56;5073522;28;19958;-78
2022/12/28 04:51:04;;;;;;;;;;;;;;;3.34;100.00;93303.78;5073281;28;19963;-78
2022/12/28 04:53:29;;;;;;;;;;;;;;;3.36;100.00;93306.94;5072723;28;20761;-78
2022/12/28 04:55:57;;;;;;;;;;;;;;;3.37;100.00;93305.91;5073620;28;19912;-78
2022/12/28 04:58:22;;;;;;;;;;;;;;;3.37;100.00;93308.50;5073626;28;19920;-78
2022/12/28 05:00:48;;;;;;;;;;;;;;;3.38;100.00;93299.72;5055298;28;20379;-79
2022/12/28 05:03:13;;;;;;;;;;;;;;;3.41;100.00;93308.84;5054251;28;20016;-78
2022/12/28 05:05:38;;;;;;;;;;;;;;;3.41;100.00;93307.03;5053668;28;20408;-78
2022/12/28 05:08:04;;;;;;;;;;;;;;;3.44;100.00;93309.19;5073693;28;19916;-78
2022/12/28 05:10:29;;;;;;;;;;;;;;;3.45;100.00;93305.59;5072921;28;19938;-78
2022/12/28 05:12:55;;;;;;;;;;;;;;;3.48;100.00;93307.72;5073381;28;19917;-78
2022/12/28 05:15:21;;;;;;;;;;;;;;;3.50;100.00;93307.53;5073405;28;20035;-78
2022/12/28 05:17:46;;;;;;;;;;;;;;;3.50;100.00;93305.72;5071540;28;19919;-76
2022/12/28 05:20:12;;;;;;;;;;;;;;;3.52;100.00;93308.88;5071030;28;20022;-76
2022/12/28 05:22:37;;;;;;;;;;;;;;;3.53;100.00;93307.88;5070743;28;19932;-76
2022/12/28 05:25:03;;;;;;;;;;;;;;;3.54;100.00;93303.47;5020147;28;19943;-76
2022/12/28 05:27:28;;;;;;;;;;;;;;;3.55;100.00;93305.81;5070865;28;19927;-76
2022/12/28 05:29:54;;;;;;;;;;;;;;;3.57;100.00;93304.84;5071202;28;19923;-76
2022/12/28 05:32:19;;;;;;;;;;;;;;;3.60;100.00;93306.97;5071330;28;19920;-76
2022/12/28 05:34:44;;;;;;;;;;;;;;;3.61;100.00;93313.75;5073924;28;19916;-77
2022/12/28 05:37:10;;;;;;;;;;;;;;;3.64;100.00;93310.69;5058606;28;19916;-77
2022/12/28 05:39:35;;;;;;;;;;;;;;;3.68;100.00;93311.84;5057596;28;19920;-77
2022/12/28 05:42:01;;;;;;;;;;;;;;;3.68;100.00;93310.03;5074344;28;19917;-77
2022/12/28 05:44:27;;;;;;;;;;;;;;;3.69;100.00;93321.16;5074806;28;19962;-77
2022/12/28 05:46:52;;;;;;;;;;;;;;;3.69;100.00;93316.78;5056502;28;19915;-77
2022/12/28 05:49:18;;;;;;;;;;;;;;;3.69;100.00;93321.16;5074653;28;20396;-77
2022/12/28 05:51:43;;;;;;;;;;;;;;;3.70;100.00;93317.56;5074516;28;19927;-77
2022/12/28 05:54:08;;;;;;;;;;;;;;;3.70;100.00;93315.00;5074397;28;19916;-76
2022/12/28 05:56:34;;;;;;;;;;;;;;;3.69;100.00;93316.78;5074355;28;19963;-77
2022/12/28 05:59:01;;;;;;;;;;;;;;;3.69;100.00;93318.56;5056456;28;19928;-77
2022/12/28 06:01:28;;;;;;;;;;;;;;;3.70;100.00;93315.00;5074103;28;19916;-77
2022/12/28 06:03:55;;;;;;;;;;;;;;;3.72;100.00;93318.16;5056199;28;19912;-77
2022/12/28 06:06:21;;;;;;;;;;;;;;;3.76;100.00;93321.88;5074096;28;19912;-77
2022/12/28 06:08:47;;;;;;;;;;;;;;;3.72;100.00;93321.53;5074322;28;20366;-76
2022/12/28 06:11:14;;;;;;;;;;;;;;;3.70;100.00;93318.38;5074174;28;19912;-76
2022/12/28 06:13:39;;;;;;;;;;;;;;;3.70;100.00;93317.56;5074465;28;19999;-77
2022/12/28 06:16:05;;;;;;;;;;;;;;;3.68;100.00;93310.03;5074484;28;19952;-76
2022/12/28 06:18:31;;;;;;;;;;;;;;;3.67;100.00;93312.81;5074227;28;19943;-76
2022/12/28 06:21:05;;;;;;;;;;;;;;;3.66;100.00;93311.25;5074084;28;20413;-77
2022/12/28 06:23:31;;;;;;;;;;;;;;;3.65;100.00;93317.47;5074121;28;19917;-77
2022/12/28 06:25:57;;;;;;;;;;;;;;;3.67;100.00;93325.78;5073686;28;19923;-77
2022/12/28 06:28:22;;;;;;;;;;;;;;;3.66;100.00;93322.41;5056285;28;19924;-77
2022/12/28 06:30:47;;;;;;;;;;;;;;;3.65;100.00;93318.25;5053912;28;20286;-77
2022/12/28 06:33:13;;;;;;;;;;;;;;;3.65;100.00;93320.84;5054172;28;20356;-77
2022/12/28 06:35:41;;;;;;;;;;;;;;;3.65;100.00;93314.88;5053893;28;19919;-76
2022/12/28 06:38:07;;;;;;;;;;;;;;;3.65;100.00;93318.25;5053653;28;19917;-77
2022/12/28 06:40:32;;;;;;;;;;;;;;;3.64;100.00;93308.88;5053869;28;19999;-77
2022/12/28 06:42:58;;;;;;;;;;;;;;;3.64;100.00;93319.25;5036031;28;20413;-76
2022/12/28 06:45:23;;;;;;;;;;;;;;;3.64;100.00;93318.47;5052960;28;19954;-76
2022/12/28 06:47:48;;;;;;;;;;;;;;;3.66;100.00;93319.03;5053481;28;19920;-77
2022/12/28 06:50:14;;;;;;;;;;;;;;;3.67;100.00;93323.19;5053658;28;19968;-77
2022/12/28 06:52:39;;;;;;;;;;;;;;;3.67;100.00;93324.00;5053364;28;19969;-77
2022/12/28 06:55:05;;;;;;;;;;;;;;;3.68;100.00;93315.19;5053276;28;20047;-77
2022/12/28 06:57:30;;;;;;;;;;;;;;;3.69;100.00;93311.63;5053390;28;20243;-77
2022/12/28 06:59:56;;;;;;;;;;;;;;;3.71;100.00;93313.97;5053464;28;20370;-76
2022/12/28 07:02:21;;;;;;;;;;;;;;;3.73;100.00;93311.94;5053477;28;19916;-77
2022/12/28 07:04:47;;;;;;;;;;;;;;;3.73;100.00;93310.13;5053660;28;19917;-77
2022/12/28 07:07:12;;;;;;;;;;;;;;;3.73;100.00;93306.75;5054448;28;19919;-77
2022/12/28 07:09:38;;;;;;;;;;;;;;;3.75;100.00;93315.88;5053224;28;20306;-76
2022/12/28 07:12:03;;;;;;;;;;;;;;;3.75;100.00;93310.69;5053681;28;19932;-77
2022/12/28 07:14:31;;;;;;;;;;;;;;;3.79;100.00;93320.63;5035672;28;19912;-77
2022/12/28 07:16:56;;;;;;;;;;;;;;;3.81;100.00;93316.03;5053018;28;20039;-77
2022/12/28 07:19:21;;;;;;;;;;;;;;;3.84;100.00;93313.75;5052991;28;20341;-77
2022/12/28 07:21:48;;;;;;;;;;;;;;;3.86;100.00;93310.94;5052845;28;20361;-77
2022/12/28 07:24:13;;;;;;;;;;;;;;;3.87;100.00;93308.16;5052690;28;20039;-77
2022/12/28 07:26:39;;;;;;;;;;;;;;;3.91;100.00;93311.06;5051929;28;19947;-76
2022/12/28 07:29:05;;;;;;;;;;;;;;;3.94;100.00;93319.19;5032673;28;20354;-76
2022/12/28 07:31:32;;;;;;;;;;;;;;;3.97;100.00;93313.53;5032569;28;20003;-77
2022/12/28 07:33:59;;;;;;;;;;;;;;;3.98;100.00;93314.31;5032948;28;19912;-77
2022/12/28 07:36:25;;;;;;;;;;;;;;;3.98;100.00;93309.13;5033321;28;20547;-77
2022/12/28 07:38:51;;;;;;;;;;;;;;;4.00;100.00;93306.34;5015245;28;19923;-77
2022/12/28 07:41:24;;;;;;;;;;;;;;;4.00;100.00;93301.94;5032122;28;19913;-77
2022/12/28 07:43:49;;;;;;;;;;;;;;;4.02;100.00;93299.13;5032533;28;20039;-77
2022/12/28 07:46:20;;;;;;;;;;;;;;;3.96;100.00;93286.06;5032628;28;19944;-78
2022/12/28 07:48:46;;;;;;;;;;;;;;;4.03;100.00;93293.72;5032713;28;20287;-77
2022/12/28 07:51:12;;;;;;;;;;;;;;;4.04;100.00;93292.69;5014892;28;20335;-77
2022/12/28 07:53:38;;;;;;;;;;;;;;;4.06;100.00;93287.31;5032670;28;20051;-78
2022/12/28 07:56:04;;;;;;;;;;;;;;;4.10;100.00;93291.03;5014787;28;19967;-77
2022/12/28 07:58:29;;;;;;;;;;;;;;;4.10;100.00;93286.63;5032186;28;19913;-77
2022/12/28 08:01:02;;;;;;;;;;;;;;;4.12;100.00;93288.97;5014105;28;19920;-77
2022/12/28 08:03:27;;;;;;;;;;;;;;;4.16;100.00;93300.47;5031431;28;19913;-77
2022/12/28 08:05:52;;;;;;;;;;;;;;;4.19;100.00;93294.84;5031824;28;19917;-77
2022/12/28 08:08:18;;;;;;;;;;;;;;;4.21;100.00;93292.81;5031518;28;20386;-77
2022/12/28 08:10:44;;;;;;;;;;;;;;;4.23;100.00;93301.13;5006236;28;20398;-77
2022/12/28 08:13:10;;;;;;;;;;;;;;;4.26;100.00;93305.09;5014499;28;19913;-77
2022/12/28 08:15:35;;;;;;;;;;;;;;;4.29;100.00;93302.03;5014425;28;20357;-78
2022/12/28 08:18:00;;;;;;;;;;;;;;;4.31;100.00;93302.59;5034709;28;19917;-78
2022/12/28 08:20:26;;;;;;;;;;;;;;;4.33;100.00;93311.72;5034663;28;20044;-78
2022/12/28 08:22:52;;;;;;;;;;;;;;;4.38;100.00;93311.03;5034018;28;19956;-77
2022/12/28 08:25:17;;;;;;;;;;;;;;;4.41;100.00;93315.00;5014759;28;19963;-77
2022/12/28 08:27:42;;;;;;;;;;;;;;;4.41;100.00;93317.56;5041665;28;19917;-78
2022/12/28 08:30:08;;;;;;;;;;;;;;;4.41;100.00;93315.00;5051992;28;19942;-77
2022/12/28 08:32:34;;;;;;;;;;;;;;;4.42;100.00;93316.56;5051727;28;20015;-77
2022/12/28 08:34:59;;;;;;;;;;;;;;;4.44;100.00;93328.28;5052703;28;20129;-77
2022/12/28 08:37:24;;;;;;;;;;;;;;;4.45;100.00;93321.31;5052423;28;20004;-77
2022/12/28 08:39:50;;;;;;;;;;;;;;;4.48;100.00;93323.44;5033993;28;19964;-78
2022/12/28 08:42:15;;;;;;;;;;;;;;;4.49;100.00;93319.84;5033738;28;19963;-77
2022/12/28 08:44:41;;;;;;;;;;;;;;;4.54;100.00;93325.13;5052024;28;19925;-78
2022/12/28 08:47:06;;;;;;;;;;;;;;;4.58;100.00;93323.66;5051882;28;20396;-77
2022/12/28 08:49:32;;;;;;;;;;;;;;;4.62;100.00;93326.59;5051872;28;19912;-77
2022/12/28 08:51:57;;;;;;;;;;;;;;;4.65;100.00;93323.53;5051370;28;19923;-77
2022/12/28 08:54:22;;;;;;;;;;;;;;;4.83;100.00;93312.22;5052253;28;19917;-78
2022/12/28 08:56:48;;;;;;;;;;;;;;;5.02;100.00;93318.78;5051582;28;20050;-77
2022/12/28 08:59:15;;;;;;;;;;;;;;;4.91;100.00;93317.00;5051810;28;20325;-77
2022/12/28 09:01:41;;;;;;;;;;;;;;;4.89;100.00;93319.88;5051953;28;19923;-77
2022/12/28 09:04:10;;;;;;;;;;;;;;;4.84;100.00;93317.19;5051896;28;20362;-76
2022/12/28 09:06:36;;;;;;;;;;;;;;;4.83;99.76;93320.00;5034443;28;20361;-77
2022/12/28 09:09:03;;;;;;;;;;;;;;;4.83;96.56;93317.41;5051219;28;19909;-77
2022/12/28 09:11:29;;;;;;;;;;;;;;;4.84;96.74;93322.38;5051766;28;19952;-78
2022/12/28 09:13:54;;;;;;;;;;;;;;;4.89;95.42;93322.44;5051792;28;20323;-77
2022/12/28 09:16:22;;;;;;;;;;;;;;;4.92;95.30;93323.78;5052174;28;19923;-77
2022/12/28 09:18:52;;;;;;;;;;;;;;;4.94;94.03;93321.75;5034103;28;19913;-77
2022/12/28 09:21:18;;;;;;;;;;;;;;;5.05;92.38;93323.53;5033869;28;19913;-76
2022/12/28 09:23:45;;;;;;;;;;;;;;;5.42;91.01;93325.75;5033775;28;19987;-77
2022/12/28 09:26:12;;;;;;;;;;;;;;;5.28;91.32;93327.84;5051897;28;20450;-76
2022/12/28 09:28:38;;;;;;;;;;;;;;;5.20;88.22;93328.19;5051407;28;19916;-76
2022/12/28 09:31:05;;;;;;;;;;;;;;;5.09;86.95;93331.63;5033624;28;19937;-77
2022/12/28 09:36:15;;;;;;;;;;;;;;;5.00;88.38;93336.41;5051653;28;19921;-77
2022/12/28 09:38:41;;;;;;;;;;;;;;;5.06;89.39;93332.09;5051703;28;19913;-77
2022/12/28 09:41:11;;;;;;;;;;;;;;;5.18;87.61;93331.03;5052683;28;19916;-77
2022/12/28 09:43:39;;;;;;;;;;;;;;;5.22;89.43;93333.94;5051228;28;19913;-77
2022/12/28 09:46:05;;;;;;;;;;;;;;;5.31;91.38;93329.19;5051807;28;19928;-77
2022/12/28 09:48:30;;;;;;;;;;;;;;;5.37;89.02;93330.84;5051843;28;19924;-77
2022/12/28 09:50:56;;;;;;;;;;;;;;;5.38;90.35;93333.22;5043833;28;19982;-78
2022/12/28 09:53:25;;;;;;;;;;;;;;;5.42;90.48;93329.13;5053024;28;19948;-78
2022/12/28 09:55:53;;;;;;;;;;;;;;;5.50;90.21;93329.78;5017700;28;19917;-78
2022/12/28 09:58:19;;;;;;;;;;;;;;;5.55;88.66;93328.03;5051040;28;19912;-77
2022/12/28 10:00:49;;;;;;;;;;;;;;;5.65;89.31;93322.22;5051249;28;19909;-77
2022/12/28 10:03:19;;;;;;;;;;;;;;;5.72;89.49;93312.50;5033328;28;20267;-77
2022/12/28 10:05:45;;;;;;;;;;;;;;;5.84;90.48;93323.59;5033023;28;20343;-77
2022/12/28 10:08:14;;;;;;;;;;;;;;;5.92;91.54;93321.63;5050890;28;19944;-77
2022/12/28 10:10:41;;;;;;;;;;;;;;;6.01;88.97;93312.41;5051224;28;19999;-77
2022/12/28 10:13:15;;;;;;;;;;;;;;;6.07;89.36;93318.50;5051252;28;20375;-78
2022/12/28 10:15:40;;;;;;;;;;;;;;;6.10;91.08;93318.78;5050904;28;19963;-77
2022/12/28 10:18:06;;;;;;;;;;;;;;;6.18;88.17;93315.03;5051273;28;19916;-78
2022/12/28 10:20:32;;;;;;;;;;;;;;;6.47;83.65;93319.06;5034143;28;19916;-77
2022/12/28 10:22:58;;;;;;;;;;;;;;;6.52;80.89;93320.16;5054008;28;19917;-77
2022/12/28 10:25:25;;;;;;;;;;;;;;;6.50;79.58;93317.00;5036287;28;20379;-77
2022/12/28 10:27:50;;;;;;;;;;;;;;;6.45;81.55;93315.13;5053697;28;19948;-77
2022/12/28 10:30:18;;;;;;;;;;;;;;;6.41;80.69;93314.81;5053862;28;19996;-77
2022/12/28 10:32:54;;;;;;;;;;;;;;;6.22;82.12;93309.09;5053803;28;20016;-78
2022/12/28 10:35:28;;;;;;;;;;;;;;;6.21;82.88;93310.16;5053999;28;19913;-77
2022/12/28 10:38:00;;;;;;;;;;;;;;;6.20;83.60;93308.56;5035954;28;19956;-77
2022/12/28 10:40:27;;;;;;;;;;;;;;;6.18;87.59;93304.63;5053712;28;20000;-78
2022/12/28 10:42:54;;;;;;;;;;;;;;;6.05;90.30;93311.72;5035651;28;19939;-77
2022/12/28 10:45:27;;;;;;;;;;;;;;;5.92;92.44;93306.84;5053548;28;20370;-77
2022/12/28 10:47:54;;;;;;;;;;;;;;;5.96;89.38;93301.97;5053738;28;19983;-77
2022/12/28 10:50:39;;;;;;;;;;;;;;;5.98;90.34;93305.88;5035602;28;19920;-78
2022/12/28 10:53:14;;;;;;;;;;;;;;;6.02;88.82;93293.22;5046596;28;19987;-77
2022/12/28 10:55:39;;;;;;;;;;;;;;;6.09;86.83;93301.63;5035552;28;20002;-77
2022/12/28 10:58:21;;;;;;;;;;;;;;;6.13;85.53;93299.34;5053337;28;19917;-77
2022/12/28 11:00:54;;;;;;;;;;;;;;;6.15;85.70;93290.28;5053172;28;19931;-78
2022/12/28 11:03:24;;;;;;;;;;;;;;;6.23;84.22;93283.88;5035960;28;19978;-77
2022/12/28 11:06:05;;;;;;;;;;;;;;;6.34;85.02;93290.81;5053132;28;19936;-77
2022/12/28 11:08:31;;;;;;;;;;;;;;;6.46;85.00;93283.69;5052902;28;19913;-77
2022/12/28 11:10:57;;;;;;;;;;;;;;;6.61;84.87;93275.28;5035423;28;19968;-77
2022/12/28 11:13:22;;;;;;;;;;;;;;;6.67;84.40;93276.91;5053193;28;20036;-77
2022/12/28 11:15:48;;;;;;;;;;;;;;;6.75;81.78;93275.69;5035150;28;20012;-77
2022/12/28 11:18:17;;;;;;;;;;;;;;;6.67;82.75;93276.13;5053276;28;20352;-77
2022/12/28 11:20:47;;;;;;;;;;;;;;;6.61;83.88;93277.88;5053082;28;20067;-77
2022/12/28 11:23:33;;;;;;;;;;;;;;;6.62;84.43;93276.88;5053132;28;20396;-77
2022/12/28 11:25:59;;;;;;;;;;;;;;;6.79;81.56;93268.97;5035480;28;19921;-77
2022/12/28 11:28:25;;;;;;;;;;;;;;;6.63;81.81;93278.41;5052623;28;19917;-76
2022/12/28 11:30:50;;;;;;;;;;;;;;;6.44;81.87;93277.94;5052659;28;20290;-78
2022/12/28 11:33:34;;;;;;;;;;;;;;;6.33;83.33;93280.66;5034589;28;19920;-77
2022/12/28 11:36:00;;;;;;;;;;;;;;;6.44;82.78;93288.34;5052782;28;19912;-77
2022/12/28 11:38:36;;;;;;;;;;;;;;;6.37;84.12;93287.75;5052359;28;19919;-77
2022/12/28 11:41:01;;;;;;;;;;;;;;;6.30;85.22;93279.28;5052426;28;20397;-77
2022/12/28 11:43:29;;;;;;;;;;;;;;;6.32;86.98;93271.25;5033256;28;19913;-78
2022/12/28 11:45:59;;;;;;;;;;;;;;;6.47;87.24;93271.47;5034651;28;19912;-77
2022/12/28 11:48:42;;;;;;;;;;;;;;;6.72;85.46;93263.19;5052237;28;19913;-77
2022/12/28 11:51:13;;;;;;;;;;;;;;;6.90;84.52;93269.09;5034440;28;20372;-77
2022/12/28 11:53:45;;;;;;;;;;;;;;;7.09;85.45;93259.91;5034457;28;19913;-77
2022/12/28 11:56:21;;;;;;;;;;;;;;;7.35;83.72;93262.78;5052365;28;20138;-77
2022/12/28 11:59:00;;;;;;;;;;;;;;;7.65;85.03;93260.44;5052355;28;19917;-77
2022/12/28 12:01:25;;;;;;;;;;;;;;;8.15;81.71;93250.63;5052341;28;20018;-77
2022/12/28 12:03:57;;;;;;;;;;;;;;;7.94;80.68;93254.91;5053265;28;19963;-78
2022/12/28 12:06:44;;;;;;;;;;;;;;;7.86;81.46;93242.34;5054035;28;19912;-77
2022/12/28 12:09:24;;;;;;;;;;;;;;;7.68;81.90;93249.53;5053528;28;19919;-78
2022/12/28 12:11:51;;;;;;;;;;;;;;;7.35;85.98;93250.53;5052785;28;20011;-77
2022/12/28 12:14:21;;;;;;;;;;;;;;;7.11;87.77;93250.03;5052047;28;20357;-77
2022/12/28 12:16:58;;;;;;;;;;;;;;;6.83;86.58;93248.47;5051905;28;19940;-77
2022/12/28 12:19:46;;;;;;;;;;;;;;;6.85;83.20;93242.00;5033939;28;20385;-77
2022/12/28 12:22:26;;;;;;;;;;;;;;;6.52;83.31;93236.94;5052512;28;20053;-77
2022/12/28 12:25:03;;;;;;;;;;;;;;;6.52;84.85;93240.31;5051744;28;19920;-77
2022/12/28 12:27:31;;;;;;;;;;;;;;;6.40;86.47;93224.81;5051648;28;20003;-77
2022/12/28 12:30:01;;;;;;;;;;;;;;;6.37;87.98;93229.72;5052222;28;20214;-77
2022/12/28 12:32:53;;;;;;;;;;;;;;;6.56;87.65;93225.00;5051309;28;19917;-77
2022/12/28 12:35:20;;;;;;;;;;;;;;;6.48;88.05;93221.00;5020626;28;19912;-78
2022/12/28 12:37:53;;;;;;;;;;;;;;;6.47;87.38;93217.63;5051447;28;20457;-78
2022/12/28 12:40:18;;;;;;;;;;;;;;;6.51;88.12;93219.72;5051531;28;20345;-77
2022/12/28 12:42:49;;;;;;;;;;;;;;;6.59;89.54;93211.50;5051361;28;20020;-77
2022/12/28 12:45:22;;;;;;;;;;;;;;;6.64;90.02;93203.75;5051595;28;19912;-77
2022/12/28 12:48:23;;;;;;;;;;;;;;;6.70;89.29;93202.00;5051856;28;19962;-77
2022/12/28 12:51:07;;;;;;;;;;;;;;;6.74;91.87;93203.09;4970668;28;19914;-77
2022/12/28 12:53:35;;;;;;;;;;;;;;;6.73;95.24;93204.88;5045311;28;20072;-77
2022/12/28 12:56:00;;;;;;;;;;;;;;;6.78;97.11;93197.16;5033845;28;20387;-77
2022/12/28 12:58:32;;;;;;;;;;;;;;;6.80;99.19;93191.69;5051428;28;20247;-77
2022/12/28 13:01:20;;;;;;;;;;;;;;;6.90;100.00;93180.63;5033561;28;19923;-77
2022/12/28 13:03:47;;;;;;;;;;;;;;;7.05;100.00;93185.97;5051160;28;20333;-77
2022/12/28 13:06:15;;;;;;;;;;;;;;;7.19;99.49;93181.13;5033409;28;19917;-78
2022/12/28 13:08:43;;;;;;;;;;;;;;;7.18;99.22;93171.75;5033473;28;20055;-77
2022/12/28 13:11:10;;;;;;;;;;;;;;;7.10;100.00;93167.78;5051300;28;19979;-76
2022/12/28 13:13:37;;;;;;;;;;;;;;;6.96;94.26;93159.59;5052413;28;20382;-76
2022/12/28 13:16:06;;;;;;;;;;;;;;;6.99;91.49;93158.31;5052734;28;20297;-78
2022/12/28 13:18:32;;;;;;;;;;;;;;;6.75;92.12;93157.81;5051547;28;19919;-76
2022/12/28 13:20:59;;;;;;;;;;;;;;;6.67;93.04;93156.44;5019119;28;19912;-78